Detroit, Michigan
Traffic Map
Current Weather Conditions
Detroit, Michigan
Overcast Light Snow
Overcast
-4°
Feels Like: -11°
Wind Chill: -11° Ceiling: 2400
Heat Index: -4° Visibility: 3mi
Dew Point: -5° Wind: 16mph
Humidity: 93% Direction: 40° (NE)
Pressure: 30.17in Gusts: 0mph
Raw Report DataCYQG 011100Z 04014KT 3SM -SN DRSN SCT007 OVC024 M04/M05 A3017 RMK SF3SC5 SLP225
Traffic Incident Summary
Active as of:
Severity:
Category:
InformationThere was an issue retrieving the traffic information for this location. Please try a different location or try again shortly.
Advertisements
Track Severe Weather on mobile